Strona główna
METAR-TAF:

METAR-TAF

Lotnisko :

Tak, Tajlandia

Szerokość geograficzna: 16-53N, Długość geograficzna: 099-09E, wysokość: 121 m

Aktualna obserwacja pogody

Raport powstał 48 minut temu, godzina 01:00 UTC
Temperatura 26°C
Wilgotność 79%
Ciśnienie
Widzialność: 6000 m
Rozproszone chmury na wysokości 2600 ft

METAR: VTPT 130100Z /////KT 6000 SCT026 26/22 Q//// NOSIG

czas: 08:48 (01:48 UTC)

Prognoza

Raport powstał 2 godziny i 48 minut temu, godzina 23:00 UTC
Prognoza ważna od 13 godzina 00 UTC do 13 godzina 24 UTC
Wiatr 5 kt od południowo-południowy wschód
Widzialność: 8000 m
Rozproszone chmury na wysokości 2600 ft
Przejściowo
od 13 godzina 05 UTC do 13 godzina 11 UTC
Wiatr 15 kt od zachód w porywach dochodzący do 25 kt
Widzialność: 4000 m
Mało chmury na wysokości 1800 ft, Cumulonimbus.
Przerywane chmury na wysokości 2600 ft
burza, deszcz

TAF: VTPT 122300Z 1300/1324 16005KT 8000 SCT026 TEMPO 1305/1311 27015G25KT 4000 TSRA FEW018CB BKN026

Obserwacja i prognoza pogody dla ponad 4000 lotnisk (raport METAR i TAF).

Dostępne stacje oznaczono żółtymi i czerwonymi punktami na mapie.

Najedź kursorem aby zobaczyć nazwę stacji.

Kliknij aby zobaczyć obserwacje i prognozy pogody.

Aby zmienić mapę: kliknij na zielony przycisk z czarnym krzyżykiem, aby powiększyć; na zielony przycisk z myślnikiem, aby pomniejszyć; na zielone strzałki, aby przejść do map sąsiednich.


METAR-TAF: